Utica, Illinois
Current Conditions -  °F | °C
As of 4:55 PM on Friday 28 Nov 2014 (Local Time) from KVYS Reporting Station
Clear Clear  
Wind Chill: 28°   Ceiling: Unl
Heat Index: 35°   Visibility: 10mi
Dew Point: 31°   Wind: 9mph
Humidity: 85%   Direction: 170°S
Pressure: 29.96"   Gusts: NA
Location:  41.34°N, 89.01°W
Report Text: KVYS 282255Z AUTO 17008KT 10SM CLR 02/00 A2996 RMK AO2 T00171005
Loading
Personal Weather Stations






























Interactive Weather Map New forecast layout! Learn more

10-Day Weather Forecast

Advertisements
Track Severe Weather on mobile